Larslan, Montana
Current Conditions -  °F | °C
As of 6:53 PM on Friday 28 Nov 2014 (Local Time) from KGGW Reporting Station
Overcast Overcast  
Wind Chill:   Ceiling: 1000
Heat Index: 24°   Visibility: 10mi
Dew Point: 19°   Wind: 23mph
Humidity: 81%   Direction: 340°NNW
Pressure: 29.48"   Gusts: NA
Location:  48.58°N, 106.19°W
Report Text: KGGW 290153Z AUTO 34020KT 10SM OVC010 M04/M07 A2948 RMK AO2 SLP017 T10441072
Loading
Personal Weather Stations






























Interactive Weather Map New forecast layout! Learn more

10-Day Weather Forecast

Advertisements
Track Severe Weather on mobile